createdAt,value
2019-06-08T00:00:32.607Z,18.97
2019-06-08T00:03:04.532Z,18.67
2019-06-08T00:05:36.414Z,22.57
2019-06-08T00:08:07.970Z,17.60
2019-06-08T00:10:39.989Z,22.43
2019-06-08T00:13:13.049Z,20.90
2019-06-08T00:15:44.883Z,18.43
2019-06-08T00:18:17.363Z,17.40
2019-06-08T00:20:51.642Z,18.23
2019-06-08T00:23:23.956Z,16.37
2019-06-08T00:25:56.078Z,18.90
2019-06-08T00:28:27.659Z,17.53
2019-06-08T00:30:59.146Z,17.87
2019-06-08T00:33:30.684Z,22.30
2019-06-08T00:36:02.132Z,19.73
2019-06-08T00:38:33.975Z,21.30
2019-06-08T00:41:05.495Z,19.83
2019-06-08T00:43:36.976Z,20.53
2019-06-08T00:46:08.569Z,22.17
2019-06-08T00:48:39.901Z,20.77
2019-06-08T00:51:11.329Z,21.87
2019-06-08T00:53:43.012Z,19.87
2019-06-08T00:56:14.558Z,22.60
2019-06-08T00:58:46.213Z,26.53
2019-06-08T01:01:22.063Z,19.43
2019-06-08T01:03:50.891Z,24.03
2019-06-08T01:06:22.995Z,20.77
2019-06-08T01:08:54.685Z,21.80
2019-06-08T01:11:26.937Z,22.10
2019-06-08T01:13:58.882Z,19.80
2019-06-08T01:16:30.381Z,21.00
2019-06-08T01:19:03.128Z,22.73
2019-06-08T01:21:34.797Z,22.87
2019-06-08T01:24:07.243Z,21.07
2019-06-08T01:26:38.618Z,25.20
2019-06-08T01:29:10.117Z,26.83
2019-06-08T01:31:41.657Z,23.50
2019-06-08T01:34:13.050Z,24.43
2019-06-08T01:36:44.511Z,29.97
2019-06-08T01:39:16.077Z,27.03
2019-06-08T01:41:47.692Z,29.97
2019-06-08T01:44:19.186Z,35.47
2019-06-08T01:46:50.498Z,22.23
2019-06-08T01:49:22.046Z,29.83
2019-06-08T01:51:53.374Z,28.23
2019-06-08T01:54:24.961Z,31.50
2019-06-08T01:56:56.532Z,23.87
2019-06-08T01:59:29.505Z,22.73
2019-06-08T02:02:01.157Z,25.00
2019-06-08T02:04:33.216Z,31.13
2019-06-08T02:07:05.824Z,25.90
2019-06-08T02:09:37.165Z,27.47
2019-06-08T02:12:08.401Z,23.07
2019-06-08T02:14:39.885Z,26.93
2019-06-08T02:17:11.409Z,24.47
2019-06-08T02:19:43.071Z,28.77
2019-06-08T02:22:14.569Z,23.90
2019-06-08T02:24:46.053Z,22.37
2019-06-08T02:27:18.448Z,27.00
2019-06-08T02:29:49.981Z,24.23
2019-06-08T02:32:21.611Z,22.30
2019-06-08T02:34:53.275Z,29.63
2019-06-08T02:37:24.668Z,22.10
2019-06-08T02:39:55.965Z,29.63
2019-06-08T02:42:28.520Z,22.37
2019-06-08T02:45:00.821Z,30.77
2019-06-08T02:47:33.046Z,25.50
2019-06-08T02:50:06.608Z,26.47
2019-06-08T02:52:40.801Z,21.13
2019-06-08T02:55:12.734Z,26.10
2019-06-08T02:57:44.546Z,27.10
2019-06-08T03:00:16.448Z,21.33
2019-06-08T03:02:48.827Z,23.50
2019-06-08T03:05:20.386Z,22.43
2019-06-08T03:07:52.729Z,27.73
2019-06-08T03:10:25.499Z,28.57
2019-06-08T03:12:57.819Z,26.93
2019-06-08T03:15:31.784Z,27.60
2019-06-08T03:18:03.129Z,27.43
2019-06-08T03:20:35.765Z,24.97
2019-06-08T03:23:07.462Z,25.37
2019-06-08T03:25:50.757Z,26.77
2019-06-08T03:28:12.690Z,23.53
2019-06-08T03:30:52.997Z,23.00
2019-06-08T03:33:17.794Z,25.10
2019-06-08T03:35:56.853Z,23.23
2019-06-08T03:38:22.846Z,20.47
2019-06-08T03:40:54.458Z,27.33
2019-06-08T03:43:25.711Z,21.97
2019-06-08T03:45:57.171Z,22.20
2019-06-08T03:48:28.473Z,22.63
2019-06-08T03:51:00.022Z,20.97
2019-06-08T03:53:31.700Z,24.03
2019-06-08T03:56:03.089Z,21.00
2019-06-08T03:58:36.496Z,20.73
2019-06-08T04:01:08.032Z,23.50
2019-06-08T04:03:39.955Z,25.23
2019-06-08T04:06:12.820Z,24.80
2019-06-08T04:08:47.026Z,24.27
2019-06-08T04:11:17.499Z,27.37
2019-06-08T04:13:50.103Z,27.80
2019-06-08T04:16:22.022Z,25.53
2019-06-08T04:18:53.422Z,25.03
2019-06-08T04:21:25.014Z,27.03
2019-06-08T04:23:56.401Z,25.90
2019-06-08T04:26:28.864Z,27.60
2019-06-08T04:29:00.257Z,26.83
2019-06-08T04:31:31.763Z,21.00
2019-06-08T04:34:03.422Z,25.90
2019-06-08T04:36:35.119Z,23.17
2019-06-08T04:39:06.801Z,23.47
2019-06-08T04:41:39.034Z,22.63
2019-06-08T04:44:11.783Z,23.53
2019-06-08T04:46:45.006Z,26.10
2019-06-08T04:49:16.463Z,24.53
2019-06-08T04:51:49.509Z,25.00
2019-06-08T04:54:20.996Z,20.57
2019-06-08T04:56:52.347Z,21.03
2019-06-08T04:59:23.918Z,19.03
2019-06-08T05:01:55.925Z,20.53
2019-06-08T05:04:27.402Z,20.37
2019-06-08T05:06:58.718Z,17.10
2019-06-08T05:09:30.250Z,18.90
2019-06-08T05:12:01.953Z,21.47
2019-06-08T05:14:33.309Z,16.07
2019-06-08T05:17:05.067Z,17.33
2019-06-08T05:19:36.536Z,17.50
2019-06-08T05:22:08.579Z,16.47
2019-06-08T05:24:41.348Z,18.23
2019-06-08T05:27:13.982Z,16.20
2019-06-08T05:29:45.430Z,15.37
2019-06-08T05:32:17.215Z,17.30
2019-06-08T05:34:49.789Z,16.30
2019-06-08T05:37:21.391Z,16.23
2019-06-08T05:39:52.961Z,15.03
2019-06-08T05:42:24.732Z,14.67
2019-06-08T05:44:56.439Z,13.40
2019-06-08T05:47:27.823Z,15.23
2019-06-08T05:49:59.098Z,13.17
2019-06-08T05:52:30.765Z,14.53
2019-06-08T05:55:05.211Z,16.03
2019-06-08T05:57:38.073Z,13.30
2019-06-08T06:00:09.969Z,14.43
2019-06-08T06:02:42.267Z,12.10
2019-06-08T06:05:13.696Z,12.53
2019-06-08T06:07:45.206Z,11.77
2019-06-08T06:10:16.577Z,10.67
2019-06-08T06:12:49.053Z,11.83
2019-06-08T06:15:20.441Z,11.73
2019-06-08T06:17:51.931Z,13.77
2019-06-08T06:20:23.269Z,13.03
2019-06-08T06:22:57.767Z,13.40
2019-06-08T06:25:27.814Z,10.40
2019-06-08T06:27:59.324Z,11.00
2019-06-08T06:30:30.630Z,11.63
2019-06-08T06:33:02.163Z,11.73
2019-06-08T06:35:33.798Z,12.40
2019-06-08T06:38:05.095Z,11.70
2019-06-08T06:40:36.449Z,11.37
2019-06-08T06:43:07.967Z,15.10
2019-06-08T06:45:39.988Z,11.67
2019-06-08T06:48:11.619Z,15.03
2019-06-08T06:50:44.292Z,13.03
2019-06-08T06:53:16.028Z,21.07
2019-06-08T06:55:47.336Z,11.10
2019-06-08T06:58:18.509Z,13.73
2019-06-08T07:00:51.598Z,13.00
2019-06-08T07:03:23.068Z,13.33
2019-06-08T07:05:54.660Z,12.30
2019-06-08T07:08:25.952Z,13.30
2019-06-08T07:10:57.247Z,13.87
2019-06-08T07:13:29.160Z,15.50
2019-06-08T07:16:17.413Z,12.70
2019-06-08T07:18:33.864Z,11.63
2019-06-08T07:21:05.411Z,9.23
2019-06-08T07:23:36.914Z,16.20
2019-06-08T07:26:08.130Z,13.43
2019-06-08T07:28:39.370Z,10.73
2019-06-08T07:31:10.753Z,10.73
2019-06-08T07:33:42.618Z,15.63
2019-06-08T07:36:14.073Z,9.73
2019-06-08T07:38:46.946Z,10.77
2019-06-08T07:41:19.463Z,12.87
2019-06-08T07:43:52.271Z,9.70
2019-06-08T07:46:23.849Z,9.50
2019-06-08T07:48:56.425Z,9.40
2019-06-08T07:51:28.064Z,10.73
2019-06-08T07:53:59.952Z,11.60
2019-06-08T07:56:31.484Z,8.80
2019-06-08T07:59:02.864Z,8.93
2019-06-08T08:01:36.497Z,9.07
2019-06-08T08:04:07.378Z,8.70
2019-06-08T08:06:38.937Z,10.33
2019-06-08T08:09:10.205Z,9.27
2019-06-08T08:11:41.886Z,8.63
2019-06-08T08:14:13.110Z,9.93
2019-06-08T08:16:44.846Z,8.63
2019-06-08T08:19:16.162Z,9.07
2019-06-08T08:21:50.159Z,8.83
2019-06-08T08:24:20.527Z,10.63
2019-06-08T08:26:53.121Z,7.97
2019-06-08T08:29:25.076Z,6.30
2019-06-08T08:31:58.801Z,6.70
2019-06-08T08:34:29.847Z,11.87
2019-06-08T08:37:05.995Z,7.50
2019-06-08T08:39:34.297Z,10.70
2019-06-08T08:42:08.315Z,7.27
2019-06-08T08:44:38.893Z,7.17
2019-06-08T08:47:10.206Z,9.70
2019-06-08T08:49:41.613Z,9.50
2019-06-08T08:52:12.891Z,10.15
2019-06-08T08:54:44.277Z,7.75
2019-06-08T08:57:17.957Z,10.35
2019-06-08T08:59:51.856Z,8.63
2019-06-08T09:02:22.026Z,8.98
2019-06-08T09:04:55.242Z,8.03
2019-06-08T09:07:27.570Z,9.30
2019-06-08T09:10:01.812Z,7.60
2019-06-08T09:12:32.370Z,8.27
2019-06-08T09:15:05.166Z,8.70
2019-06-08T09:17:38.606Z,8.97
2019-06-08T09:20:15.271Z,8.43
2019-06-08T09:22:55.835Z,8.10
2019-06-08T09:25:18.260Z,10.37
2019-06-08T09:27:51.837Z,11.27
2019-06-08T09:30:23.445Z,10.63
2019-06-08T09:32:57.158Z,8.47
2019-06-08T09:35:28.382Z,9.00
2019-06-08T09:38:03.206Z,10.50
2019-06-08T09:40:32.997Z,7.80
2019-06-08T09:43:10.404Z,8.93
2019-06-08T09:45:38.214Z,8.00
2019-06-08T09:48:09.769Z,11.87
2019-06-08T09:50:41.144Z,8.23
2019-06-08T09:53:24.202Z,9.17
2019-06-08T09:55:48.108Z,9.13
2019-06-08T09:58:19.768Z,8.93
2019-06-08T10:00:51.296Z,10.87
2019-06-08T10:03:23.003Z,8.37
2019-06-08T10:05:56.173Z,6.33
2019-06-08T10:08:31.156Z,6.57
2019-06-08T10:11:04.459Z,6.70
2019-06-08T10:13:35.601Z,6.42
2019-06-08T10:16:10.059Z,8.93
2019-06-08T10:18:40.320Z,8.80
2019-06-08T10:21:11.788Z,10.43
2019-06-08T10:23:43.041Z,7.87
2019-06-08T10:26:14.691Z,6.90
2019-06-08T10:28:48.259Z,8.53
2019-06-08T10:31:19.042Z,7.37
2019-06-08T10:33:50.401Z,7.93
2019-06-08T10:36:21.795Z,8.83
2019-06-08T10:38:53.084Z,15.50
2019-06-08T10:41:24.356Z,10.93
2019-06-08T10:43:57.022Z,7.57
2019-06-08T10:46:28.929Z,24.53
2019-06-08T10:49:01.826Z,12.70
2019-06-08T10:51:34.857Z,9.33
2019-06-08T10:54:09.048Z,8.67
2019-06-08T10:56:39.409Z,8.23
2019-06-08T10:59:12.325Z,9.37
2019-06-08T11:01:44.062Z,10.23
2019-06-08T11:04:15.401Z,8.73
2019-06-08T11:06:47.844Z,9.93
2019-06-08T11:09:19.459Z,25.07
2019-06-08T11:11:50.900Z,9.27
2019-06-08T11:14:22.951Z,7.27
2019-06-08T11:16:54.401Z,9.37
2019-06-08T11:19:26.636Z,9.40
2019-06-08T11:22:01.054Z,11.20
2019-06-08T11:24:32.117Z,70.97
2019-06-08T11:27:03.587Z,42.33
2019-06-08T11:29:35.201Z,15.40
2019-06-08T11:32:10.936Z,16.60
2019-06-08T11:34:41.468Z,10.20
2019-06-08T11:37:13.645Z,12.60
2019-06-08T11:39:45.289Z,12.70
2019-06-08T11:42:19.087Z,11.53
2019-06-08T11:44:51.139Z,8.87
2019-06-08T11:47:23.074Z,16.00
2019-06-08T11:49:54.450Z,13.80
2019-06-08T11:52:28.360Z,13.00
2019-06-08T11:55:01.746Z,10.60
2019-06-08T11:57:31.991Z,14.97
2019-06-08T12:00:18.041Z,16.37
2019-06-08T12:02:41.355Z,12.17
2019-06-08T12:05:14.322Z,14.57
2019-06-08T12:07:47.944Z,14.73
2019-06-08T12:10:19.735Z,14.97
2019-06-08T12:12:51.174Z,14.80
2019-06-08T12:15:22.469Z,14.53
2019-06-08T12:17:54.065Z,14.43
2019-06-08T12:20:27.850Z,11.60
2019-06-08T12:22:59.128Z,18.13
2019-06-08T12:25:30.438Z,11.87
2019-06-08T12:28:02.072Z,11.20
2019-06-08T12:30:33.364Z,10.93
2019-06-08T12:33:05.152Z,7.83
2019-06-08T12:35:36.793Z,11.10
2019-06-08T12:38:09.980Z,12.30
2019-06-08T12:40:41.763Z,9.83
2019-06-08T12:43:14.355Z,8.17
2019-06-08T12:45:46.525Z,11.00
2019-06-08T12:48:22.422Z,7.77
2019-06-08T12:50:51.454Z,8.90
2019-06-08T12:53:23.224Z,7.73
2019-06-08T12:55:55.163Z,9.53
2019-06-08T12:58:27.606Z,8.03
2019-06-08T13:00:59.061Z,8.93
2019-06-08T13:03:31.416Z,10.03
2019-06-08T13:06:03.053Z,9.63
2019-06-08T13:08:34.289Z,7.33
2019-06-08T13:11:09.042Z,10.73
2019-06-08T13:13:40.084Z,8.13
2019-06-08T13:16:12.525Z,6.93
2019-06-08T13:18:44.193Z,7.37
2019-06-08T13:21:28.524Z,7.77
2019-06-08T13:23:49.402Z,7.70
2019-06-08T13:26:27.493Z,6.97
2019-06-08T13:28:54.149Z,7.08
2019-06-08T13:31:28.501Z,7.87
2019-06-08T13:33:59.474Z,7.28
2019-06-08T13:36:31.217Z,4.92
2019-06-08T13:39:04.373Z,5.58
2019-06-08T13:41:35.795Z,6.35
2019-06-08T13:44:08.454Z,6.00
2019-06-08T13:46:39.914Z,4.50
2019-06-08T13:49:12.255Z,4.83
2019-06-08T13:51:43.625Z,5.50
2019-06-08T13:54:15.292Z,6.53
2019-06-08T13:56:47.921Z,7.90
2019-06-08T13:59:24.933Z,6.97
2019-06-08T14:01:54.131Z,6.80
2019-06-08T14:04:25.881Z,9.13
2019-06-08T14:06:58.214Z,9.57
2019-06-08T14:09:31.635Z,8.83
2019-06-08T14:12:03.133Z,9.07
2019-06-08T14:14:34.521Z,12.10
2019-06-08T14:17:08.356Z,7.03
2019-06-08T14:19:39.613Z,9.37
2019-06-08T14:22:11.059Z,10.97
2019-06-08T14:24:42.329Z,14.40
2019-06-08T14:27:13.559Z,14.17
2019-06-08T14:29:44.850Z,17.30
2019-06-08T14:32:18.901Z,11.87
2019-06-08T14:34:50.217Z,11.00
2019-06-08T14:37:22.802Z,19.53
2019-06-08T14:39:54.753Z,16.27
2019-06-08T14:42:29.884Z,18.30
2019-06-08T14:44:59.990Z,8.57
2019-06-08T14:47:31.410Z,15.57
2019-06-08T14:50:04.608Z,17.17
2019-06-08T14:52:38.194Z,16.50
2019-06-08T14:55:09.304Z,9.87
2019-06-08T14:57:53.896Z,11.90
2019-06-08T15:00:25.659Z,15.03
2019-06-08T15:02:59.061Z,14.73
2019-06-08T15:05:32.329Z,20.17
2019-06-08T15:08:04.376Z,12.97
2019-06-08T15:10:38.295Z,18.57
2019-06-08T15:13:09.172Z,18.53
2019-06-08T15:15:41.004Z,15.63
2019-06-08T15:18:12.360Z,13.77
2019-06-08T15:20:43.998Z,17.30
2019-06-08T15:23:17.604Z,12.37
2019-06-08T15:25:48.691Z,11.43
2019-06-08T15:28:20.688Z,13.43
2019-06-08T15:30:52.192Z,17.30
2019-06-08T15:33:24.884Z,12.97
2019-06-08T15:35:57.572Z,18.30
2019-06-08T15:38:30.578Z,14.53
2019-06-08T15:41:02.425Z,17.70
2019-06-08T15:43:39.535Z,14.27
2019-06-08T15:46:09.697Z,16.23
2019-06-08T15:48:41.057Z,16.43
2019-06-08T15:51:14.169Z,14.23
2019-06-08T15:53:47.703Z,13.07
2019-06-08T15:56:18.979Z,16.93
2019-06-08T15:58:50.246Z,12.63
2019-06-08T16:01:21.568Z,16.30
2019-06-08T16:03:52.967Z,19.00
2019-06-08T16:06:25.703Z,14.40
2019-06-08T16:08:57.161Z,14.63
2019-06-08T16:11:28.652Z,10.47
2019-06-08T16:13:59.955Z,11.77
2019-06-08T16:16:31.903Z,14.53
2019-06-08T16:19:04.579Z,14.37
2019-06-08T16:21:36.129Z,15.20
2019-06-08T16:24:09.486Z,15.33
2019-06-08T16:26:52.835Z,12.97
2019-06-08T16:29:15.695Z,15.97
2019-06-08T16:31:47.879Z,15.17
2019-06-08T16:34:20.334Z,13.93
2019-06-08T16:36:51.980Z,12.53
2019-06-08T16:39:23.795Z,13.83
2019-06-08T16:41:55.122Z,17.57
2019-06-08T16:44:26.530Z,19.73
2019-06-08T16:46:57.834Z,16.37
2019-06-08T16:49:29.400Z,17.33
2019-06-08T16:52:00.701Z,18.47
2019-06-08T16:54:32.844Z,18.40
2019-06-08T16:57:09.957Z,14.83
2019-06-08T16:59:38.579Z,14.97
2019-06-08T17:02:10.348Z,16.33
2019-06-08T17:04:42.714Z,17.20
2019-06-08T17:07:13.920Z,16.87
2019-06-08T17:09:45.424Z,21.13
2019-06-08T17:12:19.237Z,17.63
2019-06-08T17:14:51.093Z,15.13
2019-06-08T17:17:22.552Z,18.93
2019-06-08T17:19:56.230Z,14.13
2019-06-08T17:22:27.848Z,18.40
2019-06-08T17:24:59.115Z,14.93
2019-06-08T17:27:30.435Z,14.13
2019-06-08T17:30:08.355Z,13.77
2019-06-08T17:32:38.519Z,17.63
2019-06-08T17:35:10.031Z,17.80
2019-06-08T17:37:42.119Z,17.80
2019-06-08T17:40:13.755Z,18.40
2019-06-08T17:42:45.078Z,18.93
2019-06-08T17:45:16.881Z,17.43
2019-06-08T17:47:48.427Z,23.60
2019-06-08T17:50:19.994Z,23.53
2019-06-08T17:52:51.267Z,13.90
2019-06-08T17:55:22.673Z,15.40
2019-06-08T17:57:54.708Z,13.20
2019-06-08T18:00:26.042Z,12.33
2019-06-08T18:03:00.381Z,14.30
2019-06-08T18:05:31.212Z,17.67
2019-06-08T18:08:03.701Z,25.53
2019-06-08T18:10:36.489Z,19.03
2019-06-08T18:13:08.740Z,14.05
2019-06-08T18:15:43.101Z,13.33
2019-06-08T18:18:14.573Z,20.77
2019-06-08T18:20:48.034Z,16.23
2019-06-08T18:23:19.029Z,13.47
2019-06-08T18:25:50.308Z,15.30
2019-06-08T18:28:21.642Z,14.47
2019-06-08T18:30:54.637Z,11.63
2019-06-08T18:33:27.017Z,13.80
2019-06-08T18:35:58.681Z,15.70
2019-06-08T18:38:29.899Z,12.60
2019-06-08T18:41:01.215Z,13.30
2019-06-08T18:43:32.479Z,12.70
2019-06-08T18:46:03.899Z,15.13
2019-06-08T18:48:39.814Z,14.67
2019-06-08T18:51:11.017Z,13.63
2019-06-08T18:54:05.381Z,12.23
2019-06-08T18:56:17.788Z,12.03
2019-06-08T18:58:53.542Z,10.90
2019-06-08T19:01:23.887Z,11.23
2019-06-08T19:03:57.717Z,15.90
2019-06-08T19:06:28.888Z,12.43
2019-06-08T19:09:01.724Z,13.87
2019-06-08T19:11:37.187Z,9.10
2019-06-08T19:14:09.283Z,9.50
2019-06-08T19:16:43.701Z,13.50
2019-06-08T19:19:14.214Z,8.60
2019-06-08T19:21:48.519Z,7.53
2019-06-08T19:24:18.881Z,8.63
2019-06-08T19:26:50.447Z,10.43
2019-06-08T19:29:21.757Z,11.23
2019-06-08T19:31:53.295Z,9.93
2019-06-08T19:34:24.684Z,13.00
2019-06-08T19:36:57.310Z,13.07
2019-06-08T19:39:28.785Z,10.10
2019-06-08T19:42:00.212Z,9.80
2019-06-08T19:44:31.483Z,9.63
2019-06-08T19:47:03.845Z,11.70
2019-06-08T19:49:35.136Z,10.13
2019-06-08T19:52:08.429Z,9.97
2019-06-08T19:54:45.389Z,13.50
2019-06-08T19:57:12.750Z,9.33
2019-06-08T19:59:44.062Z,10.30
2019-06-08T20:02:17.591Z,10.00
2019-06-08T20:04:48.940Z,9.37
2019-06-08T20:07:20.264Z,10.60
2019-06-08T20:09:51.425Z,13.20
2019-06-08T20:12:22.906Z,8.17
2019-06-08T20:14:54.168Z,6.63
2019-06-08T20:17:28.183Z,9.37
2019-06-08T20:19:58.617Z,11.97
2019-06-08T20:22:29.975Z,6.53
2019-06-08T20:25:01.221Z,6.83
2019-06-08T20:27:32.608Z,4.77
2019-06-08T20:30:09.609Z,5.87
2019-06-08T20:32:39.193Z,4.70
2019-06-08T20:35:10.768Z,6.20
2019-06-08T20:37:43.561Z,5.67
2019-06-08T20:40:15.028Z,5.30
2019-06-08T20:42:49.299Z,5.27
2019-06-08T20:45:19.389Z,11.53
2019-06-08T20:56:11.267Z,4.40
2019-06-08T21:06:12.580Z,9.80
2019-06-08T21:16:18.199Z,5.17
2019-06-08T21:26:20.258Z,6.00
2019-06-08T21:36:21.540Z,6.23
2019-06-08T21:46:22.797Z,3.67
2019-06-08T21:56:24.416Z,5.40
2019-06-08T22:06:25.791Z,5.13
2019-06-08T22:16:27.435Z,7.67
2019-06-08T22:26:28.794Z,8.53
2019-06-08T22:36:29.993Z,8.67
2019-06-08T22:46:32.223Z,6.30
2019-06-08T22:56:33.445Z,4.60
2019-06-08T23:06:34.963Z,5.23
2019-06-08T23:16:36.502Z,5.07
2019-06-08T23:26:37.771Z,5.23
2019-06-08T23:36:51.664Z,11.77
2019-06-08T23:46:42.087Z,2.90
2019-06-08T23:56:43.391Z,7.73
